createdAt,value
2022-08-29T00:09:00.464Z,236.40
2022-08-29T00:19:03.942Z,238.40
2022-08-29T00:29:08.709Z,241.60
2022-08-29T00:39:12.069Z,233.87
2022-08-29T00:49:30.841Z,242.30
2022-08-29T00:59:38.877Z,241.33
2022-08-29T01:09:46.953Z,235.97
2022-08-29T01:19:57.161Z,241.57
2022-08-29T01:30:01.865Z,237.77
2022-08-29T01:40:07.250Z,239.83
2022-08-29T01:50:15.785Z,235.67
2022-08-29T02:00:19.586Z,235.40
2022-08-29T02:10:25.034Z,236.50
2022-08-29T02:20:28.766Z,238.83
2022-08-29T02:30:33.641Z,239.57
2022-08-29T02:40:37.680Z,238.03
2022-08-29T02:50:44.068Z,240.87
2022-08-29T03:00:47.923Z,242.37
2022-08-29T03:10:52.705Z,244.20
2022-08-29T03:20:56.223Z,249.70
2022-08-29T03:31:00.923Z,245.83
2022-08-29T03:41:04.351Z,248.60
2022-08-29T03:51:09.995Z,256.63
2022-08-29T04:01:13.389Z,244.90
2022-08-29T04:11:20.360Z,240.23
2022-08-29T04:21:23.870Z,240.77
2022-08-29T04:31:28.815Z,248.70
2022-08-29T04:41:33.245Z,239.43
2022-08-29T04:51:38.135Z,248.70
2022-08-29T05:01:42.400Z,241.63
2022-08-29T05:11:47.288Z,245.47
2022-08-29T05:21:57.083Z,250.77
2022-08-29T05:32:02.435Z,253.13
2022-08-29T05:42:07.260Z,250.27
2022-08-29T05:52:13.772Z,250.90
2022-08-29T06:02:18.145Z,252.07
2022-08-29T06:12:24.395Z,246.37
2022-08-29T06:22:27.888Z,250.80
2022-08-29T06:32:32.694Z,243.63
2022-08-29T06:42:36.080Z,234.77
2022-08-29T06:52:41.569Z,244.33
2022-08-29T07:02:52.504Z,239.87
2022-08-29T07:12:58.976Z,244.87
2022-08-29T07:23:02.435Z,244.17
2022-08-29T07:33:07.328Z,237.20
2022-08-29T07:43:11.213Z,233.90
2022-08-29T07:53:16.188Z,238.67
2022-08-29T08:03:21.785Z,237.73
2022-08-29T08:13:28.063Z,238.30
2022-08-29T08:23:31.775Z,237.43
2022-08-29T08:33:38.808Z,242.95
2022-08-29T08:43:51.826Z,237.30
2022-08-29T08:54:00.509Z,237.73
2022-08-29T09:04:27.149Z,233.37
2022-08-29T09:14:57.862Z,238.85
2022-08-29T09:25:05.102Z,243.80
2022-08-29T09:35:24.583Z,232.88
2022-08-29T09:45:28.169Z,232.93
2022-08-29T09:55:37.342Z,243.63
2022-08-29T10:05:45.249Z,225.82
2022-08-29T10:15:58.161Z,228.80
2022-08-29T10:26:10.032Z,223.02
2022-08-29T10:36:19.638Z,216.75
2022-08-29T10:46:45.682Z,213.43
2022-08-29T10:56:52.092Z,204.18
2022-08-29T11:07:03.982Z,207.82
2022-08-29T11:17:11.599Z,215.48
2022-08-29T11:27:30.450Z,219.40
2022-08-29T11:38:23.262Z,220.60
2022-08-29T11:48:36.343Z,238.43
2022-08-29T11:58:46.844Z,227.20
2022-08-29T12:09:01.726Z,220.13
2022-08-29T12:19:09.734Z,206.38
2022-08-29T12:29:22.509Z,199.60
2022-08-29T12:39:47.932Z,200.00
2022-08-29T12:49:56.049Z,213.88
2022-08-29T13:00:19.322Z,204.95
2022-08-29T13:10:23.054Z,212.40
2022-08-29T13:20:50.002Z,217.63
2022-08-29T13:31:34.632Z,219.82
2022-08-29T13:41:39.378Z,218.93
2022-08-29T13:51:42.823Z,234.23
2022-08-29T14:12:12.587Z,233.93
2022-08-29T14:22:17.696Z,235.50
2022-08-29T14:32:21.046Z,235.60
2022-08-29T14:42:25.753Z,233.63
2022-08-29T14:52:29.319Z,233.38
2022-08-29T15:02:34.211Z,238.80
2022-08-29T15:12:37.746Z,238.27
2022-08-29T15:22:42.590Z,236.37
2022-08-29T15:32:46.033Z,233.73
2022-08-29T15:42:54.082Z,233.80
2022-08-29T15:52:57.576Z,233.60
2022-08-29T16:03:05.409Z,230.03
2022-08-29T16:13:08.899Z,229.77
2022-08-29T16:23:13.677Z,229.97
2022-08-29T16:33:17.401Z,230.87
2022-08-29T16:43:23.418Z,233.73
2022-08-29T16:53:26.937Z,231.90
2022-08-29T17:03:32.344Z,234.67
2022-08-29T17:13:34.698Z,242.47
2022-08-29T17:23:41.790Z,230.70
2022-08-29T17:33:46.125Z,244.30
2022-08-29T17:43:51.602Z,250.13
2022-08-29T17:53:55.159Z,254.87
2022-08-29T18:03:59.986Z,245.03
2022-08-29T18:14:03.474Z,247.90
2022-08-29T18:24:11.181Z,238.73
2022-08-29T18:34:15.904Z,237.23
2022-08-29T18:44:20.781Z,240.37
2022-08-29T18:54:29.060Z,238.23
2022-08-29T19:04:34.527Z,245.70
2022-08-29T19:14:45.803Z,250.83
2022-08-29T19:24:50.833Z,248.60
2022-08-29T19:34:54.552Z,237.37
2022-08-29T19:44:59.319Z,243.90
2022-08-29T19:55:04.073Z,246.30
2022-08-29T20:05:12.426Z,239.17
2022-08-29T20:15:16.312Z,236.43
2022-08-29T20:25:23.096Z,240.83
2022-08-29T20:35:44.462Z,236.47
2022-08-29T20:45:49.911Z,243.50
2022-08-29T20:55:53.665Z,235.83
2022-08-29T21:06:04.548Z,242.37
2022-08-29T21:16:08.670Z,240.10
2022-08-29T21:26:13.909Z,239.40
2022-08-29T21:36:21.674Z,237.57
2022-08-29T21:46:30.707Z,228.17
2022-08-29T21:56:35.483Z,233.07
2022-08-29T22:06:42.978Z,235.33
2022-08-29T22:16:47.497Z,238.83
2022-08-29T22:26:52.152Z,238.27
2022-08-29T22:36:56.320Z,241.63
2022-08-29T22:47:01.606Z,237.27
2022-08-29T22:57:07.961Z,235.77
2022-08-29T23:07:13.154Z,235.13
2022-08-29T23:17:17.912Z,228.13
2022-08-29T23:27:22.669Z,239.63
2022-08-29T23:37:26.240Z,237.30
2022-08-29T23:47:31.876Z,233.13
2022-08-29T23:57:35.582Z,232.23
